Time;durP1;ratioP1;P1;durP2;ratioP2;P2;SDS_P1;SDS_P2;PMS_P1;PMS_P2;Temp;Humidity;BMP_temperature;BMP_pressure;BME280_temperature;BME280_humidity;BME280_pressure;Samples;Min_cycle;Max_cycle;Signal;HPM_P1;HPM_P2
2022/10/16 00:02:05;;;;;;;14.97;9.30;;;;;;;;;;4990544;28;20476;-69
2022/10/16 00:04:31;;;;;;;18.10;9.70;;;;;;;;;;4992842;28;20030;-68
2022/10/16 00:06:56;;;;;;;16.43;9.73;;;;;;;;;;4990623;28;20089;-70
2022/10/16 00:09:21;;;;;;;20.70;9.50;;;;;;;;;;4989392;28;20542;-69
2022/10/16 00:11:46;;;;;;;15.15;10.20;;;;;;;;;;4992941;28;20019;-69
2022/10/16 00:14:13;;;;;;;14.57;9.63;;;;;;;;;;4993892;28;20092;-69
2022/10/16 00:16:39;;;;;;;14.43;9.77;;;;;;;;;;4993029;28;20300;-69
2022/10/16 00:19:04;;;;;;;14.30;9.65;;;;;;;;;;5008583;28;20045;-69
2022/10/16 00:21:30;;;;;;;18.90;9.93;;;;;;;;;;4993857;28;20101;-69
2022/10/16 00:24:00;;;;;;;17.38;10.23;;;;;;;;;;4993949;28;20018;-68
2022/10/16 00:26:26;;;;;;;19.73;9.70;;;;;;;;;;4993614;28;20033;-69
2022/10/16 00:28:51;;;;;;;15.90;9.57;;;;;;;;;;4990019;28;20101;-68
2022/10/16 00:31:18;;;;;;;14.63;9.82;;;;;;;;;;4993791;28;20054;-68
2022/10/16 00:33:43;;;;;;;14.80;9.50;;;;;;;;;;4993937;28;20105;-69
2022/10/16 00:36:10;;;;;;;18.73;9.23;;;;;;;;;;5008420;28;20113;-69
2022/10/16 00:38:37;;;;;;;14.07;9.05;;;;;;;;;;5008202;28;20026;-69
2022/10/16 00:41:02;;;;;;;15.75;9.82;;;;;;;;;;5009048;28;20026;-69
2022/10/16 00:43:38;;;;;;;15.25;9.75;;;;;;;;;;4991296;28;20109;-69
2022/10/16 00:46:04;;;;;;;17.80;9.82;;;;;;;;;;4993588;28;20030;-71
2022/10/16 00:48:30;;;;;;;14.57;10.05;;;;;;;;;;5006990;28;20029;-69
2022/10/16 00:50:56;;;;;;;18.60;10.18;;;;;;;;;;4991379;28;20030;-68
2022/10/16 00:53:21;;;;;;;15.30;9.55;;;;;;;;;;4991187;28;20597;-68
2022/10/16 00:55:47;;;;;;;16.13;9.60;;;;;;;;;;4994056;28;20117;-69
2022/10/16 00:58:12;;;;;;;18.03;9.80;;;;;;;;;;4991170;28;20092;-69
2022/10/16 01:00:37;;;;;;;16.50;10.30;;;;;;;;;;4992266;28;20088;-69
2022/10/16 01:03:02;;;;;;;15.65;10.05;;;;;;;;;;4992017;28;20272;-69
2022/10/16 01:05:45;;;;;;;17.73;10.63;;;;;;;;;;4991908;28;20405;-69
2022/10/16 01:08:13;;;;;;;18.73;10.30;;;;;;;;;;4990448;28;20355;-68
2022/10/16 01:10:59;;;;;;;18.38;10.10;;;;;;;;;;5000362;28;20681;-69
2022/10/16 01:13:27;;;;;;;19.38;10.25;;;;;;;;;;4993240;28;20035;-69
2022/10/16 01:16:12;;;;;;;16.30;10.48;;;;;;;;;;4991254;28;20067;-69
2022/10/16 01:18:44;;;;;;;17.25;10.15;;;;;;;;;;4992915;28;20038;-69
2022/10/16 01:21:18;;;;;;;16.92;9.90;;;;;;;;;;4990617;28;20026;-68
2022/10/16 01:23:55;;;;;;;19.00;9.98;;;;;;;;;;4989393;28;20432;-68
2022/10/16 01:26:39;;;;;;;20.25;9.82;;;;;;;;;;4991316;28;20031;-68
2022/10/16 01:29:08;;;;;;;16.45;9.55;;;;;;;;;;4989823;28;20088;-68
2022/10/16 01:31:35;;;;;;;22.45;9.57;;;;;;;;;;4991620;28;20036;-69
2022/10/16 01:34:06;;;;;;;14.50;8.77;;;;;;;;;;5008030;28;20038;-69
2022/10/16 01:36:49;;;;;;;12.68;9.15;;;;;;;;;;4991169;28;20022;-70
2022/10/16 01:39:15;;;;;;;17.05;8.93;;;;;;;;;;4992777;28;20117;-70
2022/10/16 01:41:46;;;;;;;18.02;8.80;;;;;;;;;;4991478;28;20121;-69
2022/10/16 01:44:17;;;;;;;16.23;8.68;;;;;;;;;;4992418;28;20102;-69
2022/10/16 01:46:44;;;;;;;13.77;8.65;;;;;;;;;;5005068;28;20038;-69
2022/10/16 01:49:10;;;;;;;13.88;9.05;;;;;;;;;;4992537;28;20064;-68
2022/10/16 01:51:37;;;;;;;15.73;8.82;;;;;;;;;;4992166;28;20034;-69
2022/10/16 01:54:02;;;;;;;15.63;8.60;;;;;;;;;;4988380;28;20033;-69
2022/10/16 01:56:29;;;;;;;14.43;8.68;;;;;;;;;;4992000;28;20041;-69
2022/10/16 01:58:57;;;;;;;12.82;8.57;;;;;;;;;;4992763;28;20093;-69
2022/10/16 02:01:24;;;;;;;13.25;8.73;;;;;;;;;;4991773;28;20084;-68
2022/10/16 02:03:51;;;;;;;12.93;8.82;;;;;;;;;;4992370;28;20080;-69
2022/10/16 02:06:16;;;;;;;15.80;8.60;;;;;;;;;;4991930;28;20029;-69
2022/10/16 02:08:43;;;;;;;16.73;9.20;;;;;;;9.53;nan;101187.03;4992873;28;20036;-70
2022/10/16 02:11:10;;;;;;;17.65;8.70;;;;;;;9.54;nan;101188.63;4991716;28;20030;-68
2022/10/16 02:13:45;;;;;;;14.15;8.98;;;;;;;;;;4990517;28;20113;-68
2022/10/16 02:16:10;;;;;;;14.15;8.75;;;;;;;;;;4990408;28;20034;-69
2022/10/16 02:18:36;;;;;;;16.90;8.88;;;;;;;;;;4988016;28;20030;-69
2022/10/16 02:21:04;;;;;;;13.85;8.70;;;;;;;;;;5006933;28;20027;-69
2022/10/16 02:23:48;;;;;;;14.07;8.35;;;;;;;;;;4989205;28;20041;-68
2022/10/16 02:26:15;;;;;;;16.83;8.68;;;;;;;;;;4990398;28;20469;-67
2022/10/16 02:28:47;;;;;;;21.52;9.38;;;;;;;;;;4991499;28;20142;-68
2022/10/16 02:31:15;;;;;;;13.65;8.25;;;;;;;;;;4988538;28;20032;-68
2022/10/16 02:33:42;;;;;;;14.07;8.48;;;;;;;;;;4990103;28;20026;-68
2022/10/16 02:36:08;;;;;;;14.50;8.48;;;;;;;;;;4986481;28;20034;-68
2022/10/16 02:38:33;;;;;;;15.88;8.65;;;;;;;;;;4989858;28;20030;-68
2022/10/16 02:40:59;;;;;;;16.35;7.57;;;;;;;;;;4991394;28;20018;-69
2022/10/16 02:43:24;;;;;;;14.00;7.90;;;;;;;;;;4989968;28;20026;-68
2022/10/16 02:45:49;;;;;;;17.23;8.18;;;;;;;;;;4989418;28;20026;-68
2022/10/16 02:48:15;;;;;;;13.17;7.73;;;;;;;;;;4990029;28;20152;-69
2022/10/16 02:50:40;;;;;;;19.17;8.13;;;;;;;;;;4988291;28;20022;-68
2022/10/16 02:53:05;;;;;;;13.02;8.25;;;;;;;;;;4991548;28;20029;-68
2022/10/16 02:55:30;;;;;;;14.43;8.30;;;;;;;;;;4991337;28;20022;-69
2022/10/16 02:57:56;;;;;;;21.95;9.02;;;;;;;;;;4990170;28;20283;-68
2022/10/16 03:00:21;;;;;;;13.67;8.57;;;;;;;;;;4990780;28;20030;-68
2022/10/16 03:02:47;;;;;;;19.48;8.85;;;;;;;;;;4989989;28;20034;-69
2022/10/16 03:05:12;;;;;;;15.15;8.85;;;;;;;;;;4989858;28;20041;-67
2022/10/16 03:07:37;;;;;;;24.92;8.85;;;;;;;;;;4992556;28;20022;-69
2022/10/16 03:10:02;;;;;;;14.23;8.23;;;;;;;;;;4991090;28;20503;-68
2022/10/16 03:12:28;;;;;;;16.38;8.82;;;;;;;;;;4989042;28;20396;-69
2022/10/16 03:14:53;;;;;;;14.17;8.83;;;;;;;;;;4991311;28;20026;-68
2022/10/16 03:17:18;;;;;;;13.95;8.63;;;;;;;;;;4990275;28;20653;-69
2022/10/16 03:19:44;;;;;;;16.85;8.98;;;;;;;;;;4990193;28;20037;-69
2022/10/16 03:22:09;;;;;;;14.07;8.48;;;;;;;;;;4987179;28;20096;-68
2022/10/16 03:24:34;;;;;;;14.03;8.63;;;;;;;;;;4991103;28;20167;-69
2022/10/16 03:27:00;;;;;;;16.03;8.73;;;;;;;;;;4993223;28;20030;-68
2022/10/16 03:29:25;;;;;;;16.33;8.13;;;;;;;;;;4993503;28;20022;-68
2022/10/16 03:31:51;;;;;;;13.75;8.43;;;;;;;;;;4994875;28;20026;-68
2022/10/16 03:34:16;;;;;;;16.75;8.60;;;;;;;;;;4993409;28;20027;-69
2022/10/16 03:36:41;;;;;;;13.70;8.37;;;;;;;;;;4990820;28;20065;-71
2022/10/16 03:39:07;;;;;;;15.20;7.87;;;;;;;;;;4993198;28;20041;-68
2022/10/16 03:41:32;;;;;;;14.80;8.37;;;;;;;;;;4994033;28;20408;-69
2022/10/16 03:43:57;;;;;;;13.30;8.43;;;;;;;;;;4995039;28;20283;-69
2022/10/16 03:46:22;;;;;;;13.67;7.93;;;;;;;;;;4993970;28;20286;-69
2022/10/16 03:48:48;;;;;;;16.20;8.27;;;;;;;;;;4994684;28;20036;-70
2022/10/16 03:51:13;;;;;;;12.70;8.00;;;;;;;;;;4993628;28;20149;-68
2022/10/16 03:53:38;;;;;;;13.57;7.90;;;;;;;;;;5010681;28;20030;-69
2022/10/16 03:56:04;;;;;;;15.43;8.83;;;;;;;;;;4991570;28;20109;-69
2022/10/16 03:58:29;;;;;;;16.80;8.40;;;;;;;;;;4994579;28;20646;-71
2022/10/16 04:00:55;;;;;;;15.97;8.17;;;;;;;;;;4994247;28;20381;-68
2022/10/16 04:03:21;;;;;;;20.20;9.00;;;;;;;;;;4993570;28;20058;-69
2022/10/16 04:05:46;;;;;;;14.80;8.63;;;;;;;;;;4992951;28;20097;-69
2022/10/16 04:08:11;;;;;;;15.18;8.57;;;;;;;;;;4993098;28;20030;-69
2022/10/16 04:10:36;;;;;;;13.40;7.97;;;;;;;;;;4992630;28;20034;-69
2022/10/16 04:13:02;;;;;;;12.70;7.97;;;;;;;;;;4993097;28;20026;-69
2022/10/16 04:15:27;;;;;;;20.73;9.33;;;;;;;;;;4993802;28;20272;-69
2022/10/16 04:17:52;;;;;;;14.90;8.47;;;;;;;;;;4992974;28;20669;-69
2022/10/16 04:20:18;;;;;;;14.30;8.60;;;;;;;;;;4991965;28;20415;-69
2022/10/16 04:22:44;;;;;;;17.05;7.63;;;;;;;;;;5010309;28;20042;-69
2022/10/16 04:25:09;;;;;;;15.13;8.57;;;;;;;;;;4991810;28;20038;-69
2022/10/16 04:27:35;;;;;;;16.15;9.35;;;;;;;;;;4991134;28;20097;-69
2022/10/16 04:30:00;;;;;;;17.00;8.87;;;;;;;;;;4992303;28;20049;-68
2022/10/16 04:32:26;;;;;;;16.80;8.13;;;;;;;;;;4993799;28;20025;-70
2022/10/16 04:34:51;;;;;;;17.17;8.20;;;;;;;;;;4992435;28;20027;-69
2022/10/16 04:37:17;;;;;;;13.02;8.18;;;;;;;;;;4992546;28;20386;-69
2022/10/16 04:39:42;;;;;;;15.52;8.52;;;;;;;;;;4989154;28;20034;-69
2022/10/16 04:42:07;;;;;;;14.13;8.52;;;;;;;;;;4993560;28;20058;-69
2022/10/16 04:44:32;;;;;;;16.63;8.10;;;;;;;;;;4992499;28;20104;-69
2022/10/16 04:46:58;;;;;;;13.77;8.20;;;;;;;;;;4992567;28;20089;-69
2022/10/16 04:49:23;;;;;;;16.20;8.17;;;;;;;;;;4993578;28;20081;-69
2022/10/16 04:51:48;;;;;;;21.93;9.00;;;;;;;;;;4993837;28;20034;-69
2022/10/16 04:54:13;;;;;;;15.10;7.97;;;;;;;;;;4992394;28;20729;-69
2022/10/16 04:56:47;;;;;;;17.77;8.53;;;;;;;;;;4992237;28;20288;-70
2022/10/16 04:59:16;;;;;;;16.45;8.43;;;;;;;;;;4993302;28;20027;-69
2022/10/16 05:01:41;;;;;;;15.23;8.27;;;;;;;;;;4990126;28;20040;-70
2022/10/16 05:04:06;;;;;;;14.18;8.40;;;;;;;;;;4991896;28;20023;-70
2022/10/16 05:06:32;;;;;;;15.77;8.27;;;;;;;;;;4991006;28;20053;-70
2022/10/16 05:08:57;;;;;;;19.75;8.93;;;;;;;;;;4992361;28;20290;-69
2022/10/16 05:11:22;;;;;;;16.60;8.53;;;;;;;;;;4991629;28;20392;-68
2022/10/16 05:13:48;;;;;;;14.77;8.70;;;;;;;;;;4992554;28;20480;-69
2022/10/16 05:16:13;;;;;;;13.60;8.47;;;;;;;;;;4986686;28;20137;-69
2022/10/16 05:18:38;;;;;;;15.10;8.43;;;;;;;;;;4987646;28;20038;-69
2022/10/16 05:21:03;;;;;;;15.23;7.73;;;;;;;;;;4990390;28;20034;-69
2022/10/16 05:23:29;;;;;;;15.77;8.00;;;;;;;;;;4990891;28;20022;-66
2022/10/16 05:25:57;;;;;;;14.52;8.13;;;;;;;;;;4990142;28;20018;-68
2022/10/16 05:28:23;;;;;;;17.75;9.07;;;;;;;;;;4987326;28;20072;-69
2022/10/16 05:34:03;;;;;;;23.52;8.98;;;;;;;;;;4989021;28;20040;-68
2022/10/16 05:36:28;;;;;;;20.23;8.35;;;;;;;;;;4978543;28;20026;-68
2022/10/16 05:38:53;;;;;;;15.50;9.32;;;;;;;;;;4984958;28;20045;-69
2022/10/16 05:41:23;;;;;;;18.45;8.93;;;;;;;;;;4991489;28;20032;-70
2022/10/16 05:43:48;;;;;;;;;;;;;;;;;;4988921;28;20033;-70
2022/10/16 05:46:14;;;;;;;23.45;8.23;;;;;;;;;;4990404;28;19914;-70
2022/10/16 05:48:39;;;;;;;15.43;8.23;;;;;;;;;;4985297;28;20031;-69
2022/10/16 05:51:06;;;;;;;14.97;8.20;;;;;;;;;;5004193;28;21210;-70
2022/10/16 05:53:32;;;;;;;17.40;7.53;;;;;;;;;;4992352;28;20038;-70
2022/10/16 05:55:59;;;;;;;13.70;7.88;;;;;;;;;;4993011;28;20070;-69
2022/10/16 05:58:25;;;;;;;13.48;8.07;;;;;;;;;;4993327;28;20085;-70
2022/10/16 06:00:58;;;;;;;15.48;7.72;;;;;;;;;;4989811;28;20034;-69
2022/10/16 06:03:23;;;;;;;16.27;8.63;;;;;;;;;;4992284;28;20032;-69
2022/10/16 06:05:49;;;;;;;18.45;8.10;;;;;;;;;;4991399;28;20018;-69
2022/10/16 06:08:14;;;;;;;14.57;8.07;;;;;;;;;;4990217;28;20072;-69
2022/10/16 06:10:39;;;;;;;17.07;8.80;;;;;;;;;;4986387;28;20376;-70
2022/10/16 06:13:04;;;;;;;17.70;8.67;;;;;;;;;;4991493;28;20060;-69
2022/10/16 06:15:30;;;;;;;12.40;7.90;;;;;;;;;;4990381;28;20279;-70
2022/10/16 06:17:55;;;;;;;12.70;7.87;;;;;;;;;;4990588;28;20387;-70
2022/10/16 06:20:20;;;;;;;16.20;7.80;;;;;;;;;;4989353;28;20042;-70
2022/10/16 06:22:45;;;;;;;13.60;7.23;;;;;;;;;;4988026;28;20060;-70
2022/10/16 06:25:11;;;;;;;13.80;7.60;;;;;;;;;;4988281;28;20041;-70
2022/10/16 06:27:38;;;;;;;17.20;7.57;;;;;;;;;;4991910;28;20018;-69
2022/10/16 06:30:04;;;;;;;15.27;7.35;;;;;;;;;;4991676;28;20481;-69
2022/10/16 06:32:29;;;;;;;14.80;8.27;;;;;;;;;;4988951;28;20026;-70
2022/10/16 06:34:55;;;;;;;17.88;7.03;;;;;;;;;;4990942;28;20026;-70
2022/10/16 06:37:20;;;;;;;13.07;6.80;;;;;;;;;;4991229;28;20483;-70
2022/10/16 06:39:45;;;;;;;13.85;8.07;;;;;;;;;;4990900;28;20033;-70
2022/10/16 06:42:10;;;;;;;15.03;8.53;;;;;;;;;;4988161;28;20404;-70
2022/10/16 06:44:36;;;;;;;11.90;7.90;;;;;;;;;;4989544;28;20026;-70
2022/10/16 06:47:01;;;;;;;16.10;8.03;;;;;;;;;;4984070;28;20026;-69
2022/10/16 06:49:28;;;;;;;11.23;7.23;;;;;;;10.31;nan;101405.81;4989050;28;20108;-69
2022/10/16 06:51:53;;;;;;;13.82;7.35;;;;;;;;;;4991223;28;20408;-69
2022/10/16 06:54:18;;;;;;;11.50;6.93;;;;;;;;;;4991273;28;20109;-70
2022/10/16 06:56:44;;;;;;;12.63;7.47;;;;;;;;;;4992042;28;20484;-71
2022/10/16 06:59:09;;;;;;;11.30;7.13;;;;;;;;;;4991921;28;20282;-70
2022/10/16 07:01:34;;;;;;;11.63;6.70;;;;;;;;;;4991357;28;20401;-70
2022/10/16 07:04:00;;;;;;;13.43;7.17;;;;;;;;;;4990212;28;20330;-70
2022/10/16 07:06:26;;;;;;;11.60;6.38;;;;;;;;;;4988580;28;20030;-70
2022/10/16 07:08:52;;;;;;;13.77;6.93;;;;;;;;;;4987709;28;20172;-70
2022/10/16 07:11:18;;;;;;;10.68;6.40;;;;;;;;;;4990958;28;20026;-71
2022/10/16 07:13:44;;;;;;;15.90;6.90;;;;;;;;;;4990907;28;20384;-70
2022/10/16 07:16:09;;;;;;;12.32;6.03;;;;;;;;;;4986819;28;20038;-70
2022/10/16 07:18:36;;;;;;;11.37;5.60;;;;;;;;;;4989114;28;20034;-69
2022/10/16 07:21:08;;;;;;;11.73;6.78;;;;;;;;;;4986520;28;20031;-70
2022/10/16 07:23:34;;;;;;;17.90;7.05;;;;;;;;;;4990169;28;20112;-69
2022/10/16 07:25:59;;;;;;;12.82;6.60;;;;;;;;;;4989373;28;20488;-68
2022/10/16 07:28:24;;;;;;;12.23;6.47;;;;;;;;;;4989736;28;20026;-69
2022/10/16 07:30:50;;;;;;;12.85;6.57;;;;;;;;;;4990552;28;20271;-69
2022/10/16 07:33:15;;;;;;;13.10;6.57;;;;;;;;;;4992159;28;20070;-69
2022/10/16 07:35:49;;;;;;;10.82;5.93;;;;;;;;;;4989212;28;20276;-68
2022/10/16 07:38:14;;;;;;;11.40;6.30;;;;;;;;;;4984719;28;20073;-68
2022/10/16 07:40:40;;;;;;;12.20;6.50;;;;;;;;;;5003791;28;20026;-67
2022/10/16 07:43:05;;;;;;;11.57;6.27;;;;;;;;;;4989407;28;20151;-68
2022/10/16 07:45:30;;;;;;;18.00;6.97;;;;;;;;;;4989096;28;20290;-69
2022/10/16 07:47:55;;;;;;;11.83;5.87;;;;;;;;;;4989479;28;20109;-70
2022/10/16 07:50:21;;;;;;;10.73;6.37;;;;;;;;;;4989757;28;20280;-71
2022/10/16 07:52:46;;;;;;;12.75;6.20;;;;;;;;;;4990922;28;20112;-71
2022/10/16 07:55:11;;;;;;;9.80;6.37;;;;;;;;;;4988859;28;20084;-70
2022/10/16 07:57:36;;;;;;;12.47;6.50;;;;;;;;;;4990163;28;20468;-70
2022/10/16 08:00:02;;;;;;;10.60;6.50;;;;;;;;;;4991008;28;20022;-71
2022/10/16 08:02:27;;;;;;;14.48;6.63;;;;;;;;;;4993326;28;20066;-71
2022/10/16 08:04:52;;;;;;;13.53;6.40;;;;;;;;;;4989475;28;20067;-71
2022/10/16 08:07:17;;;;;;;10.30;6.03;;;;;;;;;;4989248;28;20034;-71
2022/10/16 08:09:43;;;;;;;9.83;6.27;;;;;;;;;;5003166;28;20038;-71
2022/10/16 08:12:10;;;;;;;11.77;6.97;;;;;;;;;;4990653;28;20057;-71
2022/10/16 08:14:35;;;;;;;11.70;5.97;;;;;;;;;;4993668;28;20038;-71
2022/10/16 08:17:01;;;;;;;10.13;6.47;;;;;;;;;;4990413;28;20057;-73
2022/10/16 08:19:27;;;;;;;8.82;5.90;;;;;;;;;;4993286;28;20066;-73
2022/10/16 08:21:52;;;;;;;10.73;6.05;;;;;;;;;;4993195;28;20064;-71
2022/10/16 08:24:17;;;;;;;12.40;5.97;;;;;;;;;;4992488;28;20058;-71
2022/10/16 08:26:42;;;;;;;12.65;6.20;;;;;;;;;;4992852;28;20511;-70
2022/10/16 08:29:08;;;;;;;12.65;6.10;;;;;;;;;;4994676;28;20751;-71
2022/10/16 08:31:33;;;;;;;9.23;5.60;;;;;;;;;;4992980;28;20034;-71
2022/10/16 08:33:58;;;;;;;10.60;5.93;;;;;;;;;;4992520;28;20030;-71
2022/10/16 08:36:26;;;;;;;11.50;5.57;;;;;;;;;;4993128;28;20045;-69
2022/10/16 08:38:55;;;;;;;22.05;6.38;;;;;;;;;;4990413;28;20023;-69
2022/10/16 08:41:27;;;;;;;8.00;5.72;;;;;;;;;;4986309;28;20576;-70
2022/10/16 08:44:10;;;;;;;11.00;5.60;;;;;;;;;;4986294;28;20033;-69
2022/10/16 08:46:38;;;;;;;11.82;5.78;;;;;;;;;;4992380;28;20034;-68
2022/10/16 08:49:06;;;;;;;10.40;5.80;;;;;;;;;;4993570;28;20029;-69
2022/10/16 08:51:33;;;;;;;19.27;6.47;;;;;;;;;;4991211;28;20014;-69
2022/10/16 08:54:01;;;;;;;13.07;5.60;;;;;;;;;;4991983;28;20025;-69
2022/10/16 08:56:26;;;;;;;12.95;6.32;;;;;;;;;;4992558;28;20034;-68
2022/10/16 08:58:53;;;;;;;9.90;5.97;;;;;;;;;;4992511;28;20041;-69
2022/10/16 09:01:19;;;;;;;18.73;6.10;;;;;;;;;;4990094;28;20042;-68
2022/10/16 09:03:45;;;;;;;9.80;5.97;;;;;;;;;;4991268;28;20023;-68
2022/10/16 09:06:16;;;;;;;16.67;6.70;;;;;;;15.26;nan;101453.38;4988241;28;20110;-69
2022/10/16 09:08:57;;;;;;;8.95;4.95;;;;;;;;;;4989233;28;20377;-66
2022/10/16 09:11:39;;;;;;;7.53;4.90;;;;;;;;;;4989650;28;20540;-69
2022/10/16 09:14:07;;;;;;;11.02;4.97;;;;;;;;;;4994296;28;20038;-68
2022/10/16 09:16:53;;;;;;;9.90;4.70;;;;;;;;;;4992113;28;20074;-68
2022/10/16 09:19:27;;;;;;;10.68;5.20;;;;;;;;;;4991139;28;20046;-68
2022/10/16 09:21:53;;;;;;;7.82;4.82;;;;;;;;;;4990847;28;20022;-68
2022/10/16 09:24:20;;;;;;;10.20;5.47;;;;;;;;;;5003830;28;20042;-69
2022/10/16 09:26:46;;;;;;;7.60;4.88;;;;;;;;;;5005873;28;20117;-69
2022/10/16 09:29:21;;;;;;;7.35;5.03;;;;;;;;;;4989299;28;20031;-68
2022/10/16 09:31:47;;;;;;;42.85;7.05;;;;;;;;;;4991195;28;20431;-67
2022/10/16 09:34:30;;;;;;;8.27;5.10;;;;;;;;;;4988531;28;20061;-68
2022/10/16 09:36:55;;;;;;;8.95;4.45;;;;;;;;;;4991973;28;20662;-67
2022/10/16 09:39:21;;;;;;;8.40;4.57;;;;;;;;;;4988735;28;20023;-69
2022/10/16 09:41:46;;;;;;;7.70;4.13;;;;;;;;;;4991583;28;20447;-68
2022/10/16 09:44:20;;;;;;;8.95;4.35;;;;;;;;;;4990021;28;20038;-68
2022/10/16 09:46:46;;;;;;;9.57;4.57;;;;;;;;;;4990204;28;20076;-67
2022/10/16 09:49:25;;;;;;;10.23;5.17;;;;;;;;;;4991446;28;20026;-68
2022/10/16 09:51:50;;;;;;;8.15;4.32;;;;;;;;;;4990516;28;20286;-68
2022/10/16 09:54:20;;;;;;;7.00;4.30;;;;;;;;;;4989800;28;20117;-69
2022/10/16 09:56:49;;;;;;;7.70;4.50;;;;;;;;;;5005505;28;20125;-67
2022/10/16 09:59:17;;;;;;;6.97;4.97;;;;;;;;;;4992299;28;20109;-66
2022/10/16 10:01:42;;;;;;;7.97;4.70;;;;;;;;;;4992026;28;20034;-68
2022/10/16 10:04:07;;;;;;;9.03;4.50;;;;;;;;;;5002668;28;20451;-68
2022/10/16 10:06:34;;;;;;;7.78;4.40;;;;;;;;;;4988906;28;20560;-68
2022/10/16 10:09:06;;;;;;;12.38;4.45;;;;;;;;;;5007470;28;20089;-68
2022/10/16 10:11:40;;;;;;;10.35;4.57;;;;;;;;;;5004825;28;20354;-68
2022/10/16 10:14:15;;;;;;;11.88;4.43;;;;;;;;;;4995764;28;20087;-68
2022/10/16 10:16:40;;;;;;;6.10;4.00;;;;;;;;;;4989301;28;20034;-68
2022/10/16 10:19:13;;;;;;;7.13;4.40;;;;;;;;;;4991076;28;20049;-68
2022/10/16 10:21:38;;;;;;;8.10;4.03;;;;;;;;;;4990019;28;20382;-67
2022/10/16 10:24:04;;;;;;;7.13;4.13;;;;;;;;;;4988465;28;20555;-67
2022/10/16 10:26:31;;;;;;;10.45;4.47;;;;;;;;;;4992362;28;20061;-68
2022/10/16 10:28:57;;;;;;;8.68;4.32;;;;;;;;;;4990681;28;20046;-68
2022/10/16 10:31:54;;;;;;;8.13;4.20;;;;;;;;;;4990319;28;20038;-67
2022/10/16 10:34:30;;;;;;;6.43;3.92;;;;;;;;;;4931441;29;20048;-68
2022/10/16 10:37:02;;;;;;;7.22;3.97;;;;;;;;;;4930480;29;20047;-68
2022/10/16 10:39:39;;;;;;;6.97;3.92;;;;;;;18.67;nan;101479.75;4927626;29;20071;-66
2022/10/16 10:42:49;;;;;;;7.55;3.70;;;;;;;18.76;nan;101451.59;4932770;29;20039;-67
2022/10/16 10:45:27;;;;;;;9.77;4.10;;;;;;;18.81;nan;101419.59;4932044;29;20591;-66
2022/10/16 10:48:13;;;;;;;6.88;3.63;;;;;;;18.95;nan;101428.00;4932944;29;20016;-69
2022/10/16 10:50:49;;;;;;;6.07;3.58;;;;;;;19.02;nan;101431.25;4929409;29;20047;-67
2022/10/16 10:53:39;;;;;;;8.63;3.88;;;;;;;19.09;nan;101439.03;4936307;29;20027;-68
2022/10/16 10:56:14;;;;;;;7.25;3.90;;;;;;;19.17;nan;101430.53;4931256;29;20066;-67
2022/10/16 10:58:51;;;;;;;5.93;3.67;;;;;;;19.29;nan;101412.47;4931622;29;20023;-69
2022/10/16 11:01:39;;;;;;;6.03;3.80;;;;;;;19.28;nan;101400.19;4928330;29;20031;-67
2022/10/16 11:04:24;;;;;;;8.07;4.10;;;;;;;19.33;nan;101420.78;4932313;29;20134;-67
2022/10/16 11:07:01;;;;;;;7.47;3.75;;;;;;;19.38;nan;101407.44;4930409;29;20022;-68
2022/10/16 11:09:31;;;;;;;6.47;3.80;;;;;;;;;;4933691;28;20038;-68
2022/10/16 11:12:00;;;;;;;6.28;3.88;;;;;;;;;;4991684;28;20117;-68
2022/10/16 11:15:00;;;;;;;5.00;3.60;;;;;;;19.50;nan;101417.94;4991804;28;20101;-68
2022/10/16 11:17:35;;;;;;;4.68;3.22;;;;;;;;;;4989475;28;20299;-68
2022/10/16 11:20:19;;;;;;;5.43;3.60;;;;;;;19.67;nan;101405.16;4989759;28;20034;-69
2022/10/16 11:22:53;;;;;;;6.43;3.60;;;;;;;19.75;nan;101423.44;4990121;28;20051;-68
2022/10/16 11:25:24;;;;;;;4.47;3.40;;;;;;;19.68;nan;101395.31;4989628;28;20038;-68
2022/10/16 11:28:08;;;;;;;6.85;3.92;;;;;;;19.69;nan;101408.41;5002005;28;20076;-68
2022/10/16 11:30:59;;;;;;;6.00;3.38;;;;;;;19.81;nan;101392.16;4989434;28;20072;-69
2022/10/16 11:33:35;;;;;;;4.72;3.53;;;;;;;19.93;nan;101410.66;4986691;28;20022;-69
2022/10/16 11:36:25;;;;;;;8.73;3.47;;;;;;;19.96;nan;101412.78;4991510;28;20023;-67
2022/10/16 11:39:12;;;;;;;4.68;2.95;;;;;;;19.98;nan;101413.34;4987702;28;20485;-68
2022/10/16 11:41:42;;;;;;;5.65;3.30;;;;;;;20.09;nan;101414.97;4988281;28;20023;-68
2022/10/16 11:44:29;;;;;;;7.28;3.47;;;;;;;19.98;nan;101411.47;4989071;28;20030;-67
2022/10/16 11:47:03;;;;;;;4.90;3.50;;;;;;;20.06;nan;101422.72;4988341;28;20022;-68
2022/10/16 11:49:30;;;;;;;5.95;3.60;;;;;;;;;;4991367;28;20391;-68
2022/10/16 11:52:15;;;;;;;9.50;3.63;;;;;;;20.22;nan;101404.84;4992582;28;20412;-68
2022/10/16 11:54:59;;;;;;;4.75;2.97;;;;;;;20.25;nan;101399.75;4992682;28;20034;-68
2022/10/16 11:57:29;;;;;;;7.85;3.25;;;;;;;20.33;nan;101344.94;5003336;28;20045;-68
2022/10/16 12:00:21;;;;;;;7.97;3.08;;;;;;;20.38;nan;101411.81;4994927;28;20022;-68
2022/10/16 12:03:05;;;;;;;4.68;2.90;;;;;;;20.44;nan;101417.97;4993021;28;20054;-68
2022/10/16 12:05:54;;;;;;;3.90;3.10;;;;;;;20.27;nan;101408.31;4994864;28;20484;-68
2022/10/16 12:08:20;;;;;;;11.00;2.90;;;;;;;;;;4993864;28;20022;-69
2022/10/16 12:10:47;;;;;;;5.30;3.08;;;;;;;20.11;nan;101412.84;4995687;28;20574;-68
2022/10/16 12:13:36;;;;;;;5.55;3.17;;;;;;;20.15;nan;101405.88;4992467;28;20106;-69
2022/10/16 12:16:21;;;;;;;4.40;2.97;;;;;;;20.24;nan;101400.84;4990839;28;20133;-68
2022/10/16 12:18:47;;;;;;;8.25;2.97;;;;;;;20.38;nan;101398.44;4991524;28;20038;-68
2022/10/16 12:21:15;;;;;;;4.72;2.88;;;;;;;;;;4992918;28;20025;-67
2022/10/16 12:23:50;;;;;;;3.88;2.80;;;;;;;20.63;nan;101423.63;4993073;28;20094;-68
2022/10/16 12:26:28;;;;;;;10.23;3.08;;;;;;;20.60;nan;101433.81;4993602;28;20148;-68
2022/10/16 12:28:54;;;;;;;3.80;2.72;;;;;;;;;;4990972;28;20088;-67
2022/10/16 12:31:20;;;;;;;7.18;3.13;;;;;;;20.76;nan;101402.50;4993550;28;20030;-67
2022/10/16 12:34:25;;;;;;;5.55;3.20;;;;;;;20.86;nan;101416.97;4991240;28;20081;-67
2022/10/16 12:36:51;;;;;;;3.75;2.80;;;;;;;20.89;nan;101406.50;4977617;28;20046;-68
2022/10/16 12:39:24;;;;;;;8.77;3.10;;;;;;;20.96;nan;101420.41;4989957;28;20400;-67
2022/10/16 12:42:04;;;;;;;6.13;2.80;;;;;;;21.02;nan;101419.34;4993828;28;20120;-67
2022/10/16 12:44:34;;;;;;;5.15;3.00;;;;;;;21.06;nan;101408.09;4990625;28;20030;-67
2022/10/16 12:47:00;;;;;;;4.32;2.75;;;;;;;21.08;nan;101413.97;4987675;28;20540;-67
2022/10/16 12:49:28;;;;;;;6.55;2.58;;;;;;;21.12;nan;101397.09;4993585;28;20126;-67
2022/10/16 12:51:54;;;;;;;5.90;3.27;;;;;;;21.15;nan;101409.16;4991509;28;20030;-67
2022/10/16 12:54:37;;;;;;;5.55;2.80;;;;;;;21.17;nan;101421.19;4993394;28;20029;-67
2022/10/16 12:57:13;;;;;;;3.42;2.70;;;;;;;21.13;nan;101446.09;4991525;28;20105;-68
2022/10/16 12:59:52;;;;;;;6.18;3.10;;;;;;;21.22;nan;101405.09;4992021;28;20026;-69
2022/10/16 13:02:36;;;;;;;10.97;2.90;;;;;;;20.91;nan;101412.41;4990478;28;20018;-69
2022/10/16 13:05:10;;;;;;;4.25;2.78;;;;;;;20.92;nan;101426.56;4991832;28;20264;-68
2022/10/16 13:07:45;;;;;;;4.10;2.80;;;;;;;20.94;nan;101422.56;4989809;28;20037;-68
2022/10/16 13:10:30;;;;;;;7.47;3.03;;;;;;;20.98;nan;101418.28;4989660;28;20641;-68
2022/10/16 13:13:20;;;;;;;4.30;2.90;;;;;;;21.04;nan;101419.84;4991909;28;20042;-68
2022/10/16 13:16:07;;;;;;;4.32;2.90;;;;;;;21.12;nan;101425.75;4988732;28;20110;-68
2022/10/16 13:18:35;;;;;;;8.65;3.00;;;;;;;21.16;nan;101413.41;4987269;28;20022;-68
2022/10/16 13:21:25;;;;;;;7.40;4.10;;;;;;;21.19;nan;101426.25;4990220;28;20477;-69
2022/10/16 13:23:55;;;;;;;5.60;2.80;;;;;;;21.23;nan;101421.97;4989336;28;20506;-68
2022/10/16 13:26:36;;;;;;;5.93;2.92;;;;;;;21.25;nan;101434.03;4991521;28;20034;-68
2022/10/16 13:29:01;;;;;;;4.15;2.90;;;;;;;21.04;nan;101398.44;4991846;28;20049;-66
2022/10/16 13:31:28;;;;;;;4.75;2.55;;;;;;;21.17;nan;101418.53;4987503;28;20500;-68
2022/10/16 13:33:55;;;;;;;4.13;2.83;;;;;;;;;;4990135;28;20097;-67
2022/10/16 13:36:26;;;;;;;5.90;3.10;;;;;;;21.23;nan;101416.63;4991730;28;20504;-66
2022/10/16 13:39:17;;;;;;;6.00;3.05;;;;;;;21.15;nan;101430.56;4987331;28;20117;-68
2022/10/16 13:41:43;;;;;;;7.72;2.72;;;;;;;21.19;nan;101421.72;4994937;28;20425;-66
2022/10/16 13:44:16;;;;;;;5.35;2.97;;;;;;;21.22;nan;101410.47;4990934;28;20116;-67
2022/10/16 13:46:41;;;;;;;7.32;3.10;;;;;;;21.25;nan;101415.28;4990849;28;20018;-67
2022/10/16 13:49:16;;;;;;;5.07;3.78;;;;;;;21.30;nan;101433.22;4990817;28;20531;-67
2022/10/16 13:51:53;;;;;;;21.77;8.15;;;;;;;21.26;nan;101469.66;4990034;28;20157;-68
2022/10/16 13:54:18;;;;;;;8.32;4.20;;;;;;;21.13;nan;101422.81;4989850;28;20022;-70
2022/10/16 13:56:44;;;;;;;12.90;8.73;;;;;;;21.13;nan;101417.44;4989872;28;20109;-69
2022/10/16 13:59:26;;;;;;;10.70;4.63;;;;;;;21.13;nan;101422.81;4990101;28;20387;-68
2022/10/16 14:01:55;;;;;;;5.47;3.38;;;;;;;21.16;nan;101424.13;4987189;28;20045;-68
2022/10/16 14:04:22;;;;;;;9.75;3.15;;;;;;;21.19;nan;101426.25;4990109;28;20053;-68